createdAt,value
2022-09-26T00:01:32.864Z,13.16
2022-09-26T00:04:03.829Z,13.18
2022-09-26T00:06:35.807Z,15.16
2022-09-26T00:09:02.413Z,16.50
2022-09-26T00:11:32.789Z,15.73
2022-09-26T00:14:11.455Z,14.63
2022-09-26T00:16:38.618Z,13.74
2022-09-26T00:19:06.726Z,13.60
2022-09-26T00:21:34.270Z,15.32
2022-09-26T00:24:04.293Z,16.61
2022-09-26T00:26:36.763Z,15.86
2022-09-26T00:29:09.884Z,14.75
2022-09-26T00:31:41.575Z,13.87
2022-09-26T00:34:12.432Z,13.23
2022-09-26T00:36:39.108Z,13.28
2022-09-26T00:39:09.141Z,15.25
2022-09-26T00:41:36.607Z,16.56
2022-09-26T00:44:42.317Z,15.78
2022-09-26T00:47:27.436Z,14.42
2022-09-26T00:50:03.953Z,13.61
2022-09-26T00:52:40.979Z,13.66
2022-09-26T00:55:12.052Z,15.70
2022-09-26T00:57:46.944Z,16.87
2022-09-26T01:00:16.637Z,15.95
2022-09-26T01:02:46.529Z,14.78
2022-09-26T01:05:18.069Z,13.89
2022-09-26T01:07:45.484Z,13.56
2022-09-26T01:10:12.618Z,14.55
2022-09-26T01:12:39.115Z,15.71
2022-09-26T01:15:08.440Z,16.42
2022-09-26T01:17:39.563Z,15.66
2022-09-26T01:20:40.561Z,14.69
2022-09-26T01:23:45.660Z,13.86
2022-09-26T01:26:38.544Z,13.93
2022-09-26T01:29:49.641Z,15.35
2022-09-26T01:32:50.531Z,16.90
2022-09-26T01:35:43.230Z,17.02
2022-09-26T01:38:44.017Z,15.78
2022-09-26T01:41:33.812Z,14.59
2022-09-26T01:44:29.380Z,13.80
2022-09-26T01:47:27.127Z,13.62
2022-09-26T01:50:04.662Z,15.08
2022-09-26T01:53:19.638Z,16.29
2022-09-26T01:55:54.348Z,16.38
2022-09-26T01:58:41.130Z,15.36
2022-09-26T02:01:14.471Z,14.45
2022-09-26T02:03:51.567Z,14.16
2022-09-26T02:06:35.628Z,15.52
2022-09-26T02:09:25.833Z,16.95
2022-09-26T02:11:59.278Z,16.15
2022-09-26T02:14:34.963Z,15.15
2022-09-26T02:17:09.609Z,14.39
2022-09-26T02:19:58.049Z,14.26
2022-09-26T02:22:33.750Z,15.76
2022-09-26T02:25:02.579Z,17.48
2022-09-26T02:27:29.124Z,18.23
2022-09-26T02:29:56.026Z,17.23
2022-09-26T02:32:31.467Z,16.02
2022-09-26T02:35:00.522Z,15.11
2022-09-26T02:37:28.533Z,14.47
2022-09-26T02:39:56.354Z,14.00
2022-09-26T02:42:37.723Z,14.09
2022-09-26T02:45:37.573Z,16.02
2022-09-26T02:48:28.763Z,17.02
2022-09-26T02:51:32.699Z,15.96
2022-09-26T02:54:22.483Z,14.88
2022-09-26T02:57:24.516Z,14.19
2022-09-26T03:00:01.189Z,13.62
2022-09-26T03:03:34.656Z,13.76
2022-09-26T03:06:07.972Z,16.34
2022-09-26T03:08:42.205Z,17.49
2022-09-26T03:11:13.998Z,16.65
2022-09-26T03:13:42.382Z,15.59
2022-09-26T03:16:10.580Z,14.84
2022-09-26T03:18:51.601Z,14.29
2022-09-26T03:21:18.442Z,13.84
2022-09-26T03:23:45.672Z,13.97
2022-09-26T03:26:24.815Z,15.91
2022-09-26T03:28:53.348Z,17.10
2022-09-26T03:31:31.131Z,16.23
2022-09-26T03:33:59.674Z,15.13
2022-09-26T03:36:27.934Z,14.39
2022-09-26T03:38:54.591Z,13.88
2022-09-26T03:41:21.680Z,13.97
2022-09-26T03:43:49.067Z,15.91
2022-09-26T03:46:15.620Z,17.25
2022-09-26T03:48:42.731Z,16.54
2022-09-26T03:51:13.084Z,15.53
2022-09-26T03:53:43.171Z,14.74
2022-09-26T03:56:14.723Z,14.14
2022-09-26T03:58:42.487Z,13.68
2022-09-26T04:01:16.298Z,13.73
2022-09-26T04:03:50.065Z,15.57
2022-09-26T04:06:19.394Z,16.80
2022-09-26T04:08:49.104Z,16.05
2022-09-26T04:11:19.800Z,15.00
2022-09-26T04:13:53.249Z,14.21
2022-09-26T04:16:23.334Z,13.63
2022-09-26T04:18:58.331Z,13.68
2022-09-26T04:21:26.566Z,15.60
2022-09-26T04:23:54.140Z,16.97
2022-09-26T04:26:24.127Z,16.37
2022-09-26T04:28:54.454Z,15.36
2022-09-26T04:31:22.820Z,14.61
2022-09-26T04:33:50.501Z,14.07
2022-09-26T04:36:17.737Z,14.11
2022-09-26T04:38:44.261Z,16.16
2022-09-26T04:41:15.568Z,17.63
2022-09-26T04:43:42.301Z,16.94
2022-09-26T04:46:15.958Z,15.89
2022-09-26T04:48:48.640Z,15.06
2022-09-26T04:51:17.635Z,14.46
2022-09-26T04:53:45.059Z,13.98
2022-09-26T04:56:14.943Z,14.05
2022-09-26T04:58:42.738Z,15.70
2022-09-26T05:01:14.416Z,16.83
2022-09-26T05:03:41.549Z,16.15
2022-09-26T05:06:10.504Z,15.16
2022-09-26T05:08:40.765Z,14.39
2022-09-26T05:11:08.932Z,14.24
2022-09-26T05:13:38.335Z,15.92
2022-09-26T05:16:08.191Z,17.26
2022-09-26T05:18:37.012Z,16.55
2022-09-26T05:21:05.398Z,15.46
2022-09-26T05:23:52.302Z,14.58
2022-09-26T05:26:21.741Z,14.61
2022-09-26T05:29:06.904Z,16.51
2022-09-26T05:31:38.863Z,17.72
2022-09-26T05:34:16.856Z,16.83
2022-09-26T05:36:45.227Z,15.69
2022-09-26T05:39:30.406Z,14.93
2022-09-26T05:41:59.549Z,14.89
2022-09-26T05:44:27.877Z,16.56
2022-09-26T05:46:56.702Z,17.65
2022-09-26T05:49:25.645Z,16.94
2022-09-26T05:51:52.739Z,15.88
2022-09-26T05:54:19.524Z,15.64
2022-09-26T05:56:45.955Z,17.13
2022-09-26T05:59:12.454Z,18.12
2022-09-26T06:01:39.173Z,17.32
2022-09-26T06:04:05.944Z,16.30
2022-09-26T06:06:33.264Z,15.51
2022-09-26T06:08:59.695Z,14.82
2022-09-26T06:11:32.636Z,14.75
2022-09-26T06:13:59.921Z,16.45
2022-09-26T06:16:27.440Z,17.61
2022-09-26T06:18:55.151Z,17.01
2022-09-26T06:21:22.380Z,16.04
2022-09-26T06:23:48.858Z,15.29
2022-09-26T06:26:25.099Z,15.24
2022-09-26T06:28:59.461Z,17.09
2022-09-26T06:31:27.692Z,18.30
2022-09-26T06:33:55.733Z,17.65
2022-09-26T06:36:23.813Z,16.74
2022-09-26T06:38:54.828Z,16.03
2022-09-26T06:41:21.336Z,15.48
2022-09-26T06:43:49.371Z,15.07
2022-09-26T06:46:16.302Z,15.18
2022-09-26T06:48:43.107Z,16.72
2022-09-26T06:51:16.353Z,17.80
2022-09-26T06:53:45.361Z,17.20
2022-09-26T06:56:12.831Z,16.42
2022-09-26T06:58:39.264Z,15.81
2022-09-26T07:01:06.325Z,15.35
2022-09-26T07:03:33.155Z,14.99
2022-09-26T07:05:59.986Z,15.10
2022-09-26T07:08:49.952Z,16.76
2022-09-26T07:11:38.087Z,17.95
2022-09-26T07:14:01.589Z,17.16
2022-09-26T07:16:29.150Z,16.37
2022-09-26T07:19:00.034Z,15.81
2022-09-26T07:21:32.096Z,15.43
2022-09-26T07:23:58.580Z,15.17
2022-09-26T07:26:24.955Z,15.39
2022-09-26T07:28:54.738Z,17.16
2022-09-26T07:31:23.059Z,18.30
2022-09-26T07:33:49.447Z,17.80
2022-09-26T07:36:17.958Z,17.11
2022-09-26T07:38:48.033Z,16.58
2022-09-26T07:41:15.080Z,16.16
2022-09-26T07:46:46.912Z,15.40
2022-09-26T07:49:32.227Z,15.88
2022-09-26T07:52:00.098Z,17.86
2022-09-26T07:54:26.535Z,18.83
2022-09-26T07:56:54.808Z,18.31
2022-09-26T07:59:22.382Z,17.57
2022-09-26T08:01:49.121Z,16.98
2022-09-26T08:04:17.633Z,16.51
2022-09-26T08:06:44.228Z,16.15
2022-09-26T08:09:10.872Z,15.92
2022-09-26T08:11:37.917Z,16.23
2022-09-26T08:14:04.529Z,17.93
2022-09-26T08:16:31.295Z,19.06
2022-09-26T08:18:58.441Z,18.69
2022-09-26T08:21:25.075Z,18.17
2022-09-26T08:23:52.976Z,17.85
2022-09-26T08:26:20.718Z,17.66
2022-09-26T08:28:47.311Z,17.58
2022-09-26T08:31:13.722Z,17.51
2022-09-26T08:33:40.649Z,17.48
2022-09-26T08:36:11.369Z,17.50
2022-09-26T08:38:38.678Z,17.51
2022-09-26T08:41:39.676Z,17.60
2022-09-26T08:44:45.128Z,17.77
2022-09-26T08:47:49.255Z,17.97
2022-09-26T08:50:49.604Z,18.13
2022-09-26T08:53:23.622Z,18.21
2022-09-26T08:55:56.573Z,18.27
2022-09-26T08:58:43.900Z,18.31
2022-09-26T09:01:38.941Z,18.33
2022-09-26T09:04:15.036Z,18.43
2022-09-26T09:06:43.035Z,18.56
2022-09-26T09:09:16.470Z,18.64
2022-09-26T09:12:37.060Z,18.61
2022-09-26T09:15:33.958Z,18.48
2022-09-26T09:18:22.236Z,18.27
2022-09-26T09:20:59.936Z,17.97
2022-09-26T09:24:08.856Z,17.83
2022-09-26T09:30:17.829Z,17.93
2022-09-26T09:32:56.284Z,18.09
2022-09-26T09:35:59.087Z,18.15
2022-09-26T09:38:32.167Z,18.27
2022-09-26T09:41:27.853Z,18.37
2022-09-26T09:44:04.999Z,18.52
2022-09-26T09:46:42.052Z,18.57
2022-09-26T09:49:08.862Z,18.54
2022-09-26T09:52:00.443Z,18.49
2022-09-26T09:55:41.044Z,18.43
2022-09-26T09:58:27.600Z,18.38
2022-09-26T10:01:27.844Z,18.30
2022-09-26T10:04:03.640Z,18.19
2022-09-26T10:06:44.796Z,18.10
2022-09-26T10:09:38.490Z,18.06
2022-09-26T10:12:15.631Z,18.01
2022-09-26T10:15:07.047Z,17.92
2022-09-26T10:17:33.553Z,17.79
2022-09-26T10:20:00.250Z,17.69
2022-09-26T10:22:36.904Z,17.64
2022-09-26T10:25:07.972Z,17.58
2022-09-26T10:27:40.568Z,17.51
2022-09-26T10:30:19.707Z,17.45
2022-09-26T10:32:55.434Z,17.37
2022-09-26T10:35:41.805Z,17.28
2022-09-26T10:38:22.202Z,17.26
2022-09-26T10:40:56.843Z,17.30
2022-09-26T10:43:33.240Z,17.31
2022-09-26T10:46:05.730Z,17.28
2022-09-26T10:48:55.800Z,17.25
2022-09-26T10:51:35.470Z,17.23
2022-09-26T10:54:16.128Z,17.22
2022-09-26T10:56:47.264Z,17.21
2022-09-26T10:59:17.719Z,17.20
2022-09-26T11:01:50.819Z,17.20
2022-09-26T11:04:42.403Z,17.21
2022-09-26T11:07:24.019Z,17.24
2022-09-26T11:10:01.037Z,17.22
2022-09-26T11:12:32.959Z,17.14
2022-09-26T11:15:08.511Z,17.11
2022-09-26T11:17:48.533Z,17.12
2022-09-26T11:20:50.154Z,17.07
2022-09-26T11:23:19.231Z,17.03
2022-09-26T11:26:17.601Z,16.99
2022-09-26T11:29:17.813Z,16.98
2022-09-26T11:31:46.290Z,17.00
2022-09-26T11:34:25.741Z,16.98
2022-09-26T11:37:44.715Z,16.96
2022-09-26T11:40:28.013Z,16.87
2022-09-26T11:43:38.230Z,16.83
2022-09-26T11:46:38.685Z,16.77
2022-09-26T11:49:41.509Z,16.72
2022-09-26T11:52:50.936Z,16.68
2022-09-26T11:55:27.613Z,16.66
2022-09-26T11:58:36.888Z,16.63
2022-09-26T12:01:42.648Z,16.59
2022-09-26T12:04:18.333Z,16.52
2022-09-26T12:06:57.637Z,16.52
2022-09-26T12:10:08.505Z,16.55
2022-09-26T12:13:05.921Z,16.68
2022-09-26T12:15:54.511Z,16.83
2022-09-26T12:18:58.987Z,16.90
2022-09-26T12:22:19.848Z,16.98
2022-09-26T12:25:26.465Z,17.02
2022-09-26T12:28:25.091Z,17.07
2022-09-26T12:31:08.287Z,17.09
2022-09-26T12:33:50.538Z,17.06
2022-09-26T12:36:51.999Z,17.02
2022-09-26T12:39:41.331Z,16.94
2022-09-26T12:42:26.271Z,16.86
2022-09-26T12:45:17.751Z,16.82
2022-09-26T12:48:30.676Z,16.82
2022-09-26T12:51:29.540Z,16.91
2022-09-26T12:54:32.571Z,17.01
2022-09-26T12:57:10.864Z,17.03
2022-09-26T13:00:14.614Z,17.08
2022-09-26T13:03:35.012Z,17.23
2022-09-26T13:06:16.327Z,17.25
2022-09-26T13:08:54.674Z,17.24
2022-09-26T13:11:52.134Z,17.27
2022-09-26T13:14:50.319Z,17.25
2022-09-26T13:17:27.584Z,17.19
2022-09-26T13:20:21.697Z,17.13
2022-09-26T13:23:25.800Z,17.08
2022-09-26T13:26:13.739Z,17.06
2022-09-26T13:29:15.551Z,17.02
2022-09-26T13:31:55.464Z,16.96
2022-09-26T13:34:34.295Z,16.90
2022-09-26T13:37:09.404Z,16.85
2022-09-26T13:39:58.884Z,16.82
2022-09-26T13:42:47.202Z,16.79
2022-09-26T13:45:54.750Z,16.73
2022-09-26T13:48:39.016Z,16.67
2022-09-26T13:51:53.339Z,16.64
2022-09-26T13:54:30.931Z,16.67
2022-09-26T13:56:57.993Z,16.71
2022-09-26T13:59:33.991Z,16.73
2022-09-26T14:02:22.886Z,16.75
2022-09-26T14:05:19.576Z,16.75
2022-09-26T14:08:11.547Z,16.72
2022-09-26T14:10:42.702Z,16.67
2022-09-26T14:13:12.122Z,16.61
2022-09-26T14:15:47.793Z,16.55
2022-09-26T14:19:12.693Z,16.49
2022-09-26T14:21:40.606Z,16.43
2022-09-26T14:24:32.295Z,16.38
2022-09-26T14:27:15.346Z,16.35
2022-09-26T14:29:48.116Z,16.34
2022-09-26T14:32:19.478Z,16.33
2022-09-26T14:34:58.948Z,16.31
2022-09-26T14:37:45.234Z,16.28
2022-09-26T14:40:35.913Z,16.27
2022-09-26T14:43:17.851Z,16.25
2022-09-26T14:45:50.002Z,16.22
2022-09-26T14:48:36.768Z,16.20
2022-09-26T14:51:15.279Z,16.19
2022-09-26T14:53:56.584Z,16.20
2022-09-26T14:56:26.675Z,16.20
2022-09-26T14:59:13.395Z,16.20
2022-09-26T15:01:42.115Z,16.20
2022-09-26T15:04:32.723Z,16.19
2022-09-26T15:07:14.706Z,16.17
2022-09-26T15:09:54.932Z,16.13
2022-09-26T15:12:38.558Z,16.08
2022-09-26T15:15:39.833Z,16.01
2022-09-26T15:18:42.042Z,15.92
2022-09-26T15:21:50.720Z,15.83
2022-09-26T15:24:34.655Z,15.72
2022-09-26T15:27:11.518Z,15.64
2022-09-26T15:29:51.972Z,15.57
2022-09-26T15:32:31.730Z,15.51
2022-09-26T15:35:01.956Z,15.45
2022-09-26T15:37:33.770Z,15.41
2022-09-26T15:40:23.461Z,15.37
2022-09-26T15:43:05.378Z,15.32
2022-09-26T15:45:57.694Z,15.27
2022-09-26T15:48:33.898Z,15.24
2022-09-26T15:51:25.835Z,15.20
2022-09-26T15:54:04.124Z,15.18
2022-09-26T15:56:43.887Z,15.15
2022-09-26T15:59:40.748Z,15.13
2022-09-26T16:02:25.664Z,15.10
2022-09-26T16:04:57.073Z,15.07
2022-09-26T16:07:27.787Z,15.05
2022-09-26T16:09:56.834Z,15.03
2022-09-26T16:12:31.177Z,14.99
2022-09-26T16:15:17.611Z,14.92
2022-09-26T16:17:56.915Z,14.83
2022-09-26T16:20:28.906Z,14.76
2022-09-26T16:23:03.303Z,14.72
2022-09-26T16:25:52.373Z,14.68
2022-09-26T16:28:44.259Z,14.66
2022-09-26T16:31:35.921Z,14.61
2022-09-26T16:34:26.858Z,14.56
2022-09-26T16:36:54.009Z,14.51
2022-09-26T16:39:37.133Z,14.86
2022-09-26T16:42:21.364Z,16.94
2022-09-26T16:44:56.923Z,18.35
2022-09-26T16:47:42.415Z,17.79
2022-09-26T16:50:32.789Z,16.95
2022-09-26T16:53:05.785Z,16.32
2022-09-26T16:55:35.886Z,15.89
2022-09-26T16:58:05.010Z,15.55
2022-09-26T17:00:55.543Z,15.25
2022-09-26T17:03:29.942Z,14.98
2022-09-26T17:05:59.288Z,14.76
2022-09-26T17:08:27.414Z,14.56
2022-09-26T17:11:01.318Z,14.39
2022-09-26T17:13:32.448Z,14.26
2022-09-26T17:16:01.781Z,14.15
2022-09-26T17:18:31.874Z,14.33
2022-09-26T17:20:59.615Z,15.97
2022-09-26T17:23:41.027Z,17.76
2022-09-26T17:26:21.281Z,18.69
2022-09-26T17:28:57.643Z,17.87
2022-09-26T17:31:24.656Z,17.00
2022-09-26T17:33:53.886Z,16.43
2022-09-26T17:36:25.618Z,16.02
2022-09-26T17:38:53.062Z,15.70
2022-09-26T17:41:22.510Z,15.44
2022-09-26T17:43:50.944Z,15.22
2022-09-26T17:46:19.862Z,15.05
2022-09-26T17:48:46.715Z,15.33
2022-09-26T17:51:13.296Z,17.30
2022-09-26T17:53:50.483Z,18.76
2022-09-26T17:56:19.553Z,18.20
2022-09-26T17:58:51.397Z,17.33
2022-09-26T18:01:35.150Z,16.66
2022-09-26T18:04:12.208Z,16.14
2022-09-26T18:06:42.540Z,15.72
2022-09-26T18:09:16.325Z,15.38
2022-09-26T18:11:53.829Z,15.57
2022-09-26T18:14:23.044Z,17.57
2022-09-26T18:16:49.847Z,18.61
2022-09-26T18:19:17.218Z,17.91
2022-09-26T18:21:44.163Z,16.98
2022-09-26T18:24:19.978Z,16.27
2022-09-26T18:26:50.418Z,15.74
2022-09-26T18:29:36.762Z,15.36
2022-09-26T18:32:22.844Z,15.01
2022-09-26T18:34:49.637Z,14.75
2022-09-26T18:37:16.366Z,15.01
2022-09-26T18:39:49.687Z,16.94
2022-09-26T18:42:42.387Z,18.26
2022-09-26T18:48:34.749Z,16.62
2022-09-26T18:54:56.457Z,16.27
2022-09-26T18:57:53.215Z,18.52
2022-09-26T19:01:10.808Z,19.39
2022-09-26T19:03:48.418Z,18.18
2022-09-26T19:06:42.194Z,17.32
2022-09-26T19:09:19.126Z,16.57
2022-09-26T19:11:49.220Z,16.09
2022-09-26T19:14:18.518Z,15.66
2022-09-26T19:16:48.536Z,15.22
2022-09-26T19:19:17.769Z,15.29
2022-09-26T19:21:56.413Z,17.06
2022-09-26T19:24:32.954Z,18.19
2022-09-26T19:27:12.727Z,17.35
2022-09-26T19:29:44.713Z,16.25
2022-09-26T19:32:31.644Z,15.86
2022-09-26T19:35:03.951Z,17.68
2022-09-26T19:37:30.611Z,18.72
2022-09-26T19:39:58.142Z,17.79
2022-09-26T19:42:25.963Z,16.56
2022-09-26T19:44:52.694Z,16.18
2022-09-26T19:47:22.883Z,17.72
2022-09-26T19:49:52.345Z,18.76
2022-09-26T19:52:20.618Z,17.89
2022-09-26T19:54:48.456Z,16.76
2022-09-26T19:57:20.012Z,15.93
2022-09-26T19:59:48.454Z,15.94
2022-09-26T20:02:23.902Z,17.73
2022-09-26T20:04:51.321Z,18.38
2022-09-26T20:07:19.486Z,17.52
2022-09-26T20:09:47.146Z,16.48
2022-09-26T20:12:14.326Z,16.08
2022-09-26T20:14:41.007Z,17.71
2022-09-26T20:17:26.525Z,18.76
2022-09-26T20:20:00.141Z,17.71
2022-09-26T20:22:26.787Z,16.49
2022-09-26T20:24:55.451Z,15.93
2022-09-26T20:27:28.606Z,17.15
2022-09-26T20:30:15.119Z,18.48
2022-09-26T20:32:43.154Z,18.82
2022-09-26T20:35:14.238Z,17.83
2022-09-26T20:37:42.223Z,16.80
2022-09-26T20:40:22.059Z,16.02
2022-09-26T20:42:56.888Z,15.75
2022-09-26T20:45:40.147Z,16.63
2022-09-26T20:48:20.446Z,17.71
2022-09-26T20:50:47.957Z,18.59
2022-09-26T20:53:21.084Z,18.61
2022-09-26T20:55:49.149Z,17.59
2022-09-26T20:58:15.972Z,16.62
2022-09-26T21:00:44.042Z,16.18
2022-09-26T21:03:13.638Z,17.21
2022-09-26T21:05:41.306Z,18.45
2022-09-26T21:08:29.754Z,18.88
2022-09-26T21:10:57.275Z,17.72
2022-09-26T21:13:23.656Z,16.61
2022-09-26T21:15:52.497Z,16.24
2022-09-26T21:18:29.420Z,17.47
2022-09-26T21:21:05.319Z,18.45
2022-09-26T21:23:41.478Z,18.67
2022-09-26T21:26:16.981Z,17.67
2022-09-26T21:28:43.715Z,16.70
2022-09-26T21:31:29.059Z,16.30
2022-09-26T21:34:00.246Z,17.14
2022-09-26T21:36:35.353Z,17.98
2022-09-26T21:39:02.023Z,18.24
2022-09-26T21:41:29.274Z,17.34
2022-09-26T21:44:29.656Z,16.35
2022-09-26T21:46:56.140Z,15.96
2022-09-26T21:49:23.907Z,17.11
2022-09-26T21:52:00.655Z,18.13
2022-09-26T21:54:35.641Z,18.51
2022-09-26T21:57:11.772Z,17.61
2022-09-26T21:59:40.359Z,16.61
2022-09-26T22:02:06.887Z,16.25
2022-09-26T22:04:34.208Z,17.24
2022-09-26T22:07:00.816Z,18.86
2022-09-26T22:09:27.387Z,19.62
2022-09-26T22:11:53.733Z,18.64
2022-09-26T22:14:20.176Z,17.47
2022-09-26T22:16:46.618Z,16.59
2022-09-26T22:19:14.254Z,16.49
2022-09-26T22:21:40.624Z,18.03
2022-09-26T22:24:06.981Z,19.50
2022-09-26T22:26:33.507Z,19.69
2022-09-26T22:29:00.137Z,18.59
2022-09-26T22:31:26.774Z,17.44
2022-09-26T22:33:57.842Z,16.56
2022-09-26T22:36:25.928Z,16.45
2022-09-26T22:38:54.208Z,18.18
2022-09-26T22:41:20.690Z,19.36
2022-09-26T22:43:48.762Z,18.62
2022-09-26T22:46:15.766Z,17.53
2022-09-26T22:48:46.284Z,16.70
2022-09-26T22:51:15.135Z,16.62
2022-09-26T22:53:43.606Z,18.36
2022-09-26T22:56:13.029Z,19.39
2022-09-26T22:58:43.961Z,18.50
2022-09-26T23:01:15.060Z,17.25
2022-09-26T23:03:41.594Z,16.31
2022-09-26T23:06:09.300Z,16.19
2022-09-26T23:08:37.286Z,17.90
2022-09-26T23:11:06.591Z,18.79
2022-09-26T23:13:34.980Z,17.93
2022-09-26T23:16:11.836Z,16.91
2022-09-26T23:18:40.872Z,16.10
2022-09-26T23:21:23.028Z,15.83
2022-09-26T23:23:54.513Z,16.90
2022-09-26T23:26:25.691Z,17.83
2022-09-26T23:28:54.417Z,18.42
2022-09-26T23:31:22.351Z,18.58
2022-09-26T23:33:48.901Z,17.72
2022-09-26T23:36:15.750Z,16.77
2022-09-26T23:38:42.250Z,16.30
2022-09-26T23:41:11.432Z,17.13
2022-09-26T23:43:39.628Z,17.90
2022-09-26T23:46:07.403Z,18.38
2022-09-26T23:48:34.466Z,18.55
2022-09-26T23:51:01.519Z,17.78
2022-09-26T23:53:27.908Z,16.89
2022-09-26T23:56:13.176Z,16.51
2022-09-26T23:58:40.884Z,17.83
